Time;durP1;ratioP1;P1;durP2;ratioP2;P2;SDS_P1;SDS_P2;PMS_P1;PMS_P2;Temp;Humidity;BMP_temperature;BMP_pressure;BME280_temperature;BME280_humidity;BME280_pressure;Samples;Min_cycle;Max_cycle;Signal;HPM_P1;HPM_P2
2023/09/10 00:00:45;;;;;;;8.10;3.55;;;;;;;17.22;46.36;95011.97;4176126;28;20131;-75
2023/09/10 00:02:47;;;;;;;7.20;3.00;;;;;;;17.30;46.42;95017.94;4186809;28;20117;-75
2023/09/10 00:04:49;;;;;;;6.47;3.30;;;;;;;17.30;46.03;95014.47;4168427;28;20480;-74
2023/09/10 00:06:51;;;;;;;7.97;3.55;;;;;;;17.33;46.15;95016.72;4191219;28;20337;-76
2023/09/10 00:08:53;;;;;;;4.68;3.00;;;;;;;17.36;46.10;95019.00;4194275;28;20132;-75
2023/09/10 00:10:58;;;;;;;5.03;3.10;;;;;;;17.45;45.80;95023.13;4194723;28;20048;-75
2023/09/10 00:13:02;;;;;;;9.38;3.22;;;;;;;17.54;45.32;95024.59;4175539;28;20121;-76
2023/09/10 00:15:05;;;;;;;5.07;2.90;;;;;;;17.62;45.23;95026.28;4189613;28;20080;-75
2023/09/10 00:17:06;;;;;;;8.05;3.97;;;;;;;17.69;44.95;95016.53;4194591;28;20179;-74
2023/09/10 00:19:11;;;;;;;4.68;2.70;;;;;;;17.78;44.80;95023.31;4186032;28;20049;-75
2023/09/10 00:21:13;;;;;;;7.40;3.45;;;;;;;17.81;44.71;95014.19;4182213;28;20572;-74
2023/09/10 00:23:14;;;;;;;7.03;3.88;;;;;;;17.83;44.65;95012.16;4193712;28;20345;-75
2023/09/10 00:25:17;;;;;;;10.27;3.35;;;;;;;17.83;44.77;95012.16;4193447;28;20063;-75
2023/09/10 00:27:19;;;;;;;4.22;2.75;;;;;;;17.85;45.08;95007.47;4193179;28;20048;-75
2023/09/10 00:29:21;;;;;;;5.68;3.38;;;;;;;17.86;45.27;95001.19;4191969;28;20424;-76
2023/09/10 00:31:23;;;;;;;10.07;3.40;;;;;;;17.87;44.95;95002.78;4188730;28;20204;-75
2023/09/10 00:33:24;;;;;;;5.70;2.97;;;;;;;17.86;44.64;95009.13;4184529;28;20056;-74
2023/09/10 00:35:26;;;;;;;9.23;3.65;;;;;;;17.81;44.80;95001.75;4190173;28;20135;-75
2023/09/10 00:37:28;;;;;;;5.53;3.05;;;;;;;17.84;44.70;95005.03;4193741;28;20044;-75
2023/09/10 00:39:30;;;;;;;7.40;3.58;;;;;;;17.85;44.59;94999.53;4190905;28;20132;-76
2023/09/10 00:41:32;;;;;;;5.05;3.08;;;;;;;17.85;44.50;94999.53;4184154;28;20489;-73
2023/09/10 00:43:34;;;;;;;8.40;3.33;;;;;;;17.85;44.56;95007.47;4193028;28;20053;-74
2023/09/10 00:45:36;;;;;;;6.32;3.20;;;;;;;17.82;44.58;94997.28;4189582;28;20053;-75
2023/09/10 00:47:44;;;;;;;6.80;3.20;;;;;;;17.81;44.86;94996.44;4180867;28;20048;-74
2023/09/10 00:49:47;;;;;;;5.57;3.20;;;;;;;17.81;44.41;94998.28;4175741;28;20148;-74
2023/09/10 00:51:49;;;;;;;9.00;2.80;;;;;;;17.79;44.10;95002.97;4164196;28;20168;-73
2023/09/10 00:53:51;;;;;;;9.73;3.30;;;;;;;17.76;44.14;95003.34;4190745;28;20053;-75
2023/09/10 00:55:54;;;;;;;11.25;3.80;;;;;;;17.75;45.52;95005.16;4196139;28;20053;-75
2023/09/10 00:57:57;;;;;;;9.27;3.30;;;;;;;17.59;45.91;95011.63;4192144;28;20060;-75
2023/09/10 00:59:59;;;;;;;10.70;4.25;;;;;;;17.48;46.65;95013.97;4171420;28;20083;-75
2023/09/10 01:02:02;;;;;;;8.27;3.58;;;;;;;17.42;46.70;95014.75;4169378;28;20041;-77
2023/09/10 01:04:04;;;;;;;9.23;3.08;;;;;;;17.36;46.56;95006.56;4190344;28;20384;-74
2023/09/10 01:06:07;;;;;;;4.47;3.00;;;;;;;17.38;47.15;95006.38;4189796;28;20080;-73
2023/09/10 01:08:09;;;;;;;6.30;3.75;;;;;;;17.45;46.54;95007.25;4188166;28;20206;-74
2023/09/10 01:10:11;;;;;;;6.28;3.35;;;;;;;17.47;46.63;95007.88;4190713;28;20135;-74
2023/09/10 01:12:36;;;;;;;8.77;3.10;;;;;;;17.46;46.41;95011.50;4175630;28;20599;-76
2023/09/10 01:14:47;;;;;;;8.77;3.50;;;;;;;17.48;46.60;95006.03;4193140;28;21335;-75
2023/09/10 01:16:59;;;;;;;11.07;3.80;;;;;;;17.50;46.54;94991.56;4184999;28;20053;-74
2023/09/10 01:19:31;;;;;;;6.90;3.30;;;;;;;17.54;46.91;94998.13;4175696;28;20115;-73
2023/09/10 01:21:36;;;;;;;8.02;3.25;;;;;;;17.58;46.55;94993.25;4170108;28;20048;-74
2023/09/10 01:24:03;;;;;;;8.43;3.00;;;;;;;17.54;46.87;95003.41;4191988;28;20406;-74
2023/09/10 01:26:04;;;;;;;5.18;2.63;;;;;;;17.51;46.67;94992.38;4179685;28;20132;-74
2023/09/10 01:28:06;;;;;;;4.65;2.85;;;;;;;17.50;46.47;94985.47;4189909;28;20080;-76
2023/09/10 01:30:09;;;;;;;7.35;3.10;;;;;;;17.48;46.58;94988.28;4179122;28;20312;-75
2023/09/10 01:32:20;;;;;;;4.83;3.00;;;;;;;17.48;47.50;94998.88;4193458;28;20235;-77
2023/09/10 01:34:26;;;;;;;6.90;3.10;;;;;;;17.43;47.73;94995.22;4174132;28;20063;-76
2023/09/10 01:36:38;;;;;;;5.47;3.30;;;;;;;17.23;47.72;95001.19;4181699;28;20161;-76
2023/09/10 01:38:55;;;;;;;8.68;3.00;;;;;;;16.88;48.31;95005.56;4158990;28;20053;-75
2023/09/10 01:41:03;;;;;;;6.22;3.40;;;;;;;16.69;48.80;95009.63;4193560;28;20056;-76
2023/09/10 01:43:06;;;;;;;4.88;2.72;;;;;;;16.56;48.83;95007.69;4175400;28;20510;-75
2023/09/10 01:45:10;;;;;;;7.72;2.78;;;;;;;16.31;48.96;95002.75;4175210;28;20172;-74
2023/09/10 01:47:12;;;;;;;5.05;2.80;;;;;;;16.27;49.36;95001.50;4186337;28;20069;-75
2023/09/10 01:49:15;;;;;;;8.13;2.92;;;;;;;16.33;49.76;95006.03;4191237;28;20495;-75
2023/09/10 01:51:17;;;;;;;6.47;2.72;;;;;;;16.40;49.15;95005.28;4169969;28;20045;-74
2023/09/10 01:53:19;;;;;;;7.78;2.92;;;;;;;16.40;49.19;95010.59;4176419;28;20139;-76
2023/09/10 01:55:20;;;;;;;6.57;3.20;;;;;;;16.38;49.31;95008.94;4181005;28;20510;-74
2023/09/10 01:57:22;;;;;;;9.77;3.00;;;;;;;16.45;50.03;95014.28;4189380;28;20052;-75
2023/09/10 01:59:24;;;;;;;7.88;3.00;;;;;;;16.54;50.04;95014.97;4183899;28;20310;-76
2023/09/10 02:01:26;;;;;;;6.20;2.75;;;;;;;16.57;48.95;95012.78;4175413;28;20487;-78
2023/09/10 02:03:27;;;;;;;4.97;2.95;;;;;;;16.54;49.22;95012.34;4173288;28;20052;-76
2023/09/10 02:05:30;;;;;;;9.13;3.65;;;;;;;16.58;49.84;95013.59;4195101;28;20108;-75
2023/09/10 02:07:31;;;;;;;8.80;3.17;;;;;;;16.65;49.48;95016.31;4168342;28;20360;-75
2023/09/10 02:09:33;;;;;;;6.97;3.55;;;;;;;16.71;49.37;95023.50;4189792;28;20080;-77
2023/09/10 02:11:35;;;;;;;5.88;3.00;;;;;;;16.72;49.78;95020.66;4183337;28;20048;-76
2023/09/10 02:13:37;;;;;;;7.30;3.13;;;;;;;16.79;49.41;95026.84;4198938;28;20054;-75
2023/09/10 02:15:39;;;;;;;4.95;2.80;;;;;;;16.84;49.37;95022.84;4191919;28;20123;-76
2023/09/10 02:17:41;;;;;;;4.68;3.17;;;;;;;16.85;49.21;95025.31;4176823;28;20136;-75
2023/09/10 02:19:46;;;;;;;6.80;3.00;;;;;;;16.87;49.31;95022.47;4190050;28;20094;-74
2023/09/10 02:21:50;;;;;;;6.85;3.10;;;;;;;16.87;49.43;95023.28;4197190;28;20280;-77
2023/09/10 02:23:51;;;;;;;5.03;3.08;;;;;;;16.89;49.96;95026.56;4168397;28;20401;-74
2023/09/10 02:25:53;;;;;;;3.90;2.67;;;;;;;16.88;50.29;95029.38;4159435;28;20064;-75
2023/09/10 02:27:55;;;;;;;5.63;3.38;;;;;;;16.84;50.25;95028.94;4194909;28;20080;-75
2023/09/10 02:29:56;;;;;;;5.07;3.42;;;;;;;16.79;50.44;95028.66;4188746;28;20072;-76
2023/09/10 02:31:58;;;;;;;10.45;3.92;;;;;;;16.77;50.60;95026.19;4185420;28;20045;-76
2023/09/10 02:34:01;;;;;;;7.18;3.47;;;;;;;16.80;50.81;95025.06;4186230;28;20049;-75
2023/09/10 02:36:03;;;;;;;11.13;3.60;;;;;;;16.81;50.61;95026.69;4197842;28;20082;-75
2023/09/10 02:38:05;;;;;;;8.55;3.67;;;;;;;16.74;51.19;95029.25;4198994;28;20071;-76
2023/09/10 02:40:08;;;;;;;9.77;3.60;;;;;;;16.69;51.27;95025.50;4200051;28;20051;-77
2023/09/10 02:42:09;;;;;;;8.97;3.60;;;;;;;16.63;51.12;95026.25;4179459;28;20073;-74
2023/09/10 02:44:11;;;;;;;8.02;4.43;;;;;;;16.60;51.46;95022.16;4193299;28;20052;-77
2023/09/10 02:46:13;;;;;;;7.30;3.75;;;;;;;16.53;51.31;95016.81;4201693;28;20103;-75
2023/09/10 02:48:15;;;;;;;5.95;4.03;;;;;;;16.49;51.33;95014.75;4191851;28;20143;-77
2023/09/10 02:50:16;;;;;;;6.68;4.10;;;;;;;16.53;51.51;95016.00;4201101;28;20468;-75
2023/09/10 02:52:19;;;;;;;6.13;3.50;;;;;;;16.58;51.15;95016.25;4188093;28;20056;-75
2023/09/10 02:54:21;;;;;;;7.65;3.42;;;;;;;16.63;51.23;95010.38;4200484;28;20048;-75
2023/09/10 02:56:22;;;;;;;10.13;3.38;;;;;;;16.66;51.42;95010.84;4210002;28;20056;-75
2023/09/10 02:58:24;;;;;;;7.18;3.58;;;;;;;16.68;50.99;95011.47;4196115;28;20048;-76
2023/09/10 03:00:26;;;;;;;8.18;3.38;;;;;;;16.70;51.06;95016.59;4209311;28;20044;-76
2023/09/10 03:02:28;;;;;;;8.82;4.00;;;;;;;16.71;50.80;95021.69;4196304;28;20083;-77
2023/09/10 03:04:29;;;;;;;6.35;3.30;;;;;;;16.73;50.80;95017.00;4198733;28;20041;-72
2023/09/10 03:06:31;;;;;;;8.82;3.78;;;;;;;16.74;50.40;95013.38;4173498;28;20053;-72
2023/09/10 03:08:35;;;;;;;7.60;3.80;;;;;;;16.70;50.49;95017.41;4184445;28;20532;-75
2023/09/10 03:10:38;;;;;;;6.78;3.88;;;;;;;16.43;51.06;95007.56;4197076;28;20540;-75
2023/09/10 03:12:40;;;;;;;11.85;3.42;;;;;;;16.39;51.19;95015.06;4190993;28;20100;-75
2023/09/10 03:14:41;;;;;;;7.70;3.70;;;;;;;16.43;51.05;95018.94;4180787;28;20049;-76
2023/09/10 03:16:43;;;;;;;6.25;3.08;;;;;;;16.43;50.54;95024.22;4194839;28;20462;-76
2023/09/10 03:18:45;;;;;;;9.55;3.85;;;;;;;16.39;51.20;95020.34;4181359;28;20135;-77
2023/09/10 03:20:47;;;;;;;8.73;3.30;;;;;;;16.40;51.45;95026.44;4176976;28;20110;-74
2023/09/10 03:22:50;;;;;;;8.70;3.60;;;;;;;16.37;51.40;95023.16;4179013;28;20057;-75
2023/09/10 03:24:52;;;;;;;11.65;3.40;;;;;;;16.40;50.96;95023.81;4181887;28;20067;-78
2023/09/10 03:26:54;;;;;;;7.65;3.95;;;;;;;16.43;51.38;95021.59;4178723;28;20052;-74
2023/09/10 03:28:55;;;;;;;5.28;2.78;;;;;;;16.45;49.73;95026.69;4199640;28;20392;-77
2023/09/10 03:30:57;;;;;;;5.22;2.63;;;;;;;16.47;49.01;95029.97;4172624;28;20519;-75
2023/09/10 03:32:59;;;;;;;11.57;2.85;;;;;;;16.47;49.03;95029.97;4167117;28;20041;-74
2023/09/10 03:35:03;;;;;;;7.80;2.92;;;;;;;16.45;48.80;95035.44;4176716;28;20075;-76
2023/09/10 03:37:06;;;;;;;6.03;2.90;;;;;;;16.46;49.14;95028.34;4195353;28;20064;-74
2023/09/10 03:39:08;;;;;;;7.63;2.88;;;;;;;16.46;48.85;95031.00;4204439;28;20114;-75
2023/09/10 03:41:10;;;;;;;6.97;2.63;;;;;;;16.45;49.26;95039.91;4175921;28;20052;-74
2023/09/10 03:43:12;;;;;;;4.85;2.90;;;;;;;16.46;49.61;95037.09;4187964;28;20060;-75
2023/09/10 03:45:13;;;;;;;8.23;3.00;;;;;;;16.48;48.75;95039.56;4194090;28;20049;-76
2023/09/10 03:47:15;;;;;;;9.05;3.10;;;;;;;16.49;48.65;95030.59;4174866;28;20049;-74
2023/09/10 03:49:17;;;;;;;11.25;3.30;;;;;;;16.45;49.91;95034.63;4194203;28;20056;-75
2023/09/10 03:51:19;;;;;;;6.57;2.97;;;;;;;16.29;50.34;95036.50;4187782;28;20067;-74
2023/09/10 03:53:20;;;;;;;9.18;4.30;;;;;;;16.16;50.40;95044.28;4190126;28;20869;-73
2023/09/10 03:55:22;;;;;;;7.55;3.97;;;;;;;15.69;50.80;95040.19;4185074;28;20201;-75
2023/09/10 03:57:27;;;;;;;8.95;4.82;;;;;;;15.45;51.49;95044.72;4181433;28;20072;-73
2023/09/10 03:59:29;;;;;;;9.43;4.55;;;;;;;15.35;52.66;95039.69;4185706;28;20067;-75
2023/09/10 04:01:32;;;;;;;6.95;3.80;;;;;;;15.44;51.94;95045.69;4184474;28;20045;-75
2023/09/10 04:03:34;;;;;;;7.22;3.25;;;;;;;15.55;51.82;95045.28;4188206;28;20053;-77
2023/09/10 04:05:36;;;;;;;5.85;2.97;;;;;;;15.75;51.53;95044.78;4177867;28;20049;-75
2023/09/10 04:07:38;;;;;;;8.27;3.47;;;;;;;15.87;50.46;95043.28;4166234;28;20434;-76
2023/09/10 04:09:41;;;;;;;6.00;3.28;;;;;;;15.94;50.04;95046.03;4176376;28;20129;-75
2023/09/10 04:11:43;;;;;;;7.45;4.07;;;;;;;16.01;50.10;95054.06;4181321;28;20049;-77
2023/09/10 04:13:45;;;;;;;7.50;3.95;;;;;;;16.06;50.01;95052.47;4193592;28;20045;-77
2023/09/10 04:15:47;;;;;;;11.80;4.55;;;;;;;16.14;49.81;95054.22;4191105;28;20094;-74
2023/09/10 04:17:49;;;;;;;11.15;4.57;;;;;;;16.14;49.76;95052.38;4186731;28;20067;-75
2023/09/10 04:19:51;;;;;;;11.13;4.30;;;;;;;16.12;49.96;95057.03;4193326;28;20048;-75
2023/09/10 04:21:53;;;;;;;17.80;4.40;;;;;;;16.16;49.81;95052.22;4182567;28;21552;-75
2023/09/10 04:23:55;;;;;;;10.38;5.50;;;;;;;16.15;50.26;95058.47;4188557;28;20072;-76
2023/09/10 04:25:58;;;;;;;11.73;5.38;;;;;;;16.03;50.61;95050.22;4162280;28;20415;-76
2023/09/10 04:28:00;;;;;;;14.68;5.57;;;;;;;15.98;50.59;95060.50;4190459;28;20080;-75
2023/09/10 04:30:02;;;;;;;8.98;4.80;;;;;;;15.96;50.50;95055.41;4183547;28;20107;-77
2023/09/10 04:32:05;;;;;;;8.80;3.75;;;;;;;16.03;49.52;95054.69;4193716;28;20051;-74
2023/09/10 04:34:07;;;;;;;8.57;4.38;;;;;;;16.10;49.43;95058.22;4164433;28;20049;-75
2023/09/10 04:36:08;;;;;;;9.73;4.38;;;;;;;16.20;49.72;95052.63;4182648;28;20132;-76
2023/09/10 04:38:10;;;;;;;7.95;4.68;;;;;;;16.31;49.15;95057.47;4201805;28;20459;-78
2023/09/10 04:40:12;;;;;;;13.73;5.68;;;;;;;16.38;48.54;95050.44;4198946;28;20127;-75
2023/09/10 04:42:14;;;;;;;10.32;4.80;;;;;;;16.43;48.73;95055.16;4187459;28;20098;-75
2023/09/10 04:44:16;;;;;;;8.57;4.15;;;;;;;16.51;48.72;95062.97;4188069;28;20048;-76
2023/09/10 04:46:18;;;;;;;8.68;4.70;;;;;;;16.55;48.79;95059.75;4191035;28;20068;-74
2023/09/10 04:48:20;;;;;;;9.88;5.07;;;;;;;16.63;48.56;95060.66;4191805;28;20072;-74
2023/09/10 04:50:21;;;;;;;13.80;4.85;;;;;;;16.63;48.60;95066.78;4185234;28;20058;-75
2023/09/10 04:52:24;;;;;;;13.60;4.63;;;;;;;16.70;48.54;95065.00;4170764;28;20050;-75
2023/09/10 04:54:25;;;;;;;8.05;4.53;;;;;;;16.72;48.46;95062.19;4174373;28;20049;-76
2023/09/10 04:56:27;;;;;;;9.55;4.75;;;;;;;16.79;48.29;95063.88;4186927;28;20044;-76
2023/09/10 04:58:29;;;;;;;11.93;4.65;;;;;;;16.79;48.17;95063.06;4175838;28;20435;-75
2023/09/10 05:00:31;;;;;;;8.88;4.40;;;;;;;16.90;48.32;95067.06;4189915;28;20049;-74
2023/09/10 05:02:32;;;;;;;10.65;5.13;;;;;;;16.92;48.30;95073.00;4192708;28;20048;-76
2023/09/10 05:04:35;;;;;;;11.57;4.85;;;;;;;16.93;47.78;95069.34;4193940;28;20044;-75
2023/09/10 05:06:36;;;;;;;10.38;5.57;;;;;;;16.96;47.80;95069.78;4186205;28;20049;-76
2023/09/10 05:08:38;;;;;;;10.10;4.63;;;;;;;17.01;47.61;95071.84;4181415;28;20411;-75
2023/09/10 05:10:40;;;;;;;16.88;5.22;;;;;;;17.04;47.37;95075.97;4192432;28;20124;-75
2023/09/10 05:12:43;;;;;;;10.02;5.50;;;;;;;17.08;46.89;95067.44;4184339;28;20052;-74
2023/09/10 05:14:44;;;;;;;11.65;4.85;;;;;;;17.11;47.16;95068.88;4186113;28;20131;-77
2023/09/10 05:16:46;;;;;;;9.95;5.07;;;;;;;17.20;47.13;95073.84;4179013;28;20041;-75
2023/09/10 05:18:48;;;;;;;9.27;4.78;;;;;;;17.29;46.57;95071.06;4192911;28;20049;-75
2023/09/10 05:20:52;;;;;;;7.72;4.82;;;;;;;17.39;46.48;95064.44;4193194;28;20060;-75
2023/09/10 05:22:54;;;;;;;7.68;4.80;;;;;;;17.48;46.10;95067.75;4189668;28;20056;-78
2023/09/10 05:24:56;;;;;;;7.38;4.75;;;;;;;17.51;45.96;95070.03;4178516;28;20049;-75
2023/09/10 05:26:57;;;;;;;9.48;4.95;;;;;;;17.52;46.13;95074.31;4190237;28;20052;-79
2023/09/10 05:28:59;;;;;;;12.13;5.60;;;;;;;17.46;46.57;95080.38;4193586;28;20060;-79
2023/09/10 05:31:04;;;;;;;11.38;5.57;;;;;;;17.37;46.88;95086.81;4183044;28;20036;-76
2023/09/10 05:33:06;;;;;;;11.85;5.57;;;;;;;17.34;46.70;95095.16;4190546;28;20472;-75
2023/09/10 05:35:10;;;;;;;15.27;6.97;;;;;;;17.33;46.60;95086.38;4185692;28;20091;-76
2023/09/10 05:37:12;;;;;;;11.77;5.50;;;;;;;17.28;46.54;95083.50;4205878;28;20059;-75
2023/09/10 05:39:14;;;;;;;9.93;5.10;;;;;;;17.38;46.37;95088.47;4192702;28;20499;-75
2023/09/10 05:41:15;;;;;;;9.63;4.90;;;;;;;17.40;46.11;95084.63;4169867;28;20045;-75
2023/09/10 05:43:18;;;;;;;10.40;5.43;;;;;;;17.50;46.21;95094.06;4191283;28;20049;-75
2023/09/10 05:45:19;;;;;;;8.27;5.07;;;;;;;17.59;45.92;95087.59;4193037;28;20135;-76
2023/09/10 05:47:22;;;;;;;13.90;5.28;;;;;;;17.72;45.20;95084.22;4187337;28;20059;-73
2023/09/10 05:49:24;;;;;;;10.57;5.03;;;;;;;17.85;45.00;95083.53;4189454;28;20429;-77
2023/09/10 05:51:25;;;;;;;11.05;5.13;;;;;;;17.85;44.96;95086.97;4187059;28;20051;-76
2023/09/10 05:53:27;;;;;;;6.85;4.90;;;;;;;17.95;44.63;95084.81;4199778;28;20048;-76
2023/09/10 05:55:29;;;;;;;8.25;4.75;;;;;;;18.08;44.45;95083.25;4196190;28;20080;-76
2023/09/10 05:57:31;;;;;;;10.45;4.70;;;;;;;18.17;44.22;95082.88;4180797;28;20053;-75
2023/09/10 05:59:32;;;;;;;7.78;4.72;;;;;;;18.25;44.34;95079.25;4193009;28;20049;-76
2023/09/10 06:01:34;;;;;;;9.55;5.03;;;;;;;18.17;43.88;95074.91;4185930;28;20116;-73
2023/09/10 06:03:36;;;;;;;9.25;4.70;;;;;;;18.24;44.00;95088.25;4189614;28;20128;-78
2023/09/10 06:05:38;;;;;;;14.20;5.18;;;;;;;18.32;43.82;95085.41;4183626;28;20455;-76
2023/09/10 06:07:40;;;;;;;10.15;5.20;;;;;;;18.46;43.86;95096.09;4187006;28;20394;-76
2023/09/10 06:09:43;;;;;;;10.77;5.13;;;;;;;18.53;43.48;95091.63;4186642;28;20049;-75
2023/09/10 06:11:46;;;;;;;15.50;5.20;;;;;;;18.67;43.30;95087.16;4188402;28;20040;-77
2023/09/10 06:13:48;;;;;;;10.68;5.60;;;;;;;18.37;44.03;95090.13;4193822;28;20194;-75
2023/09/10 06:15:50;;;;;;;11.30;5.40;;;;;;;18.19;44.39;95098.59;4190555;28;20062;-77
2023/09/10 06:17:52;;;;;;;12.95;5.85;;;;;;;18.05;44.55;95100.38;4186654;28;20507;-75
2023/09/10 06:19:53;;;;;;;12.43;6.10;;;;;;;18.22;44.79;95100.88;4188908;28;20052;-74
2023/09/10 06:21:55;;;;;;;13.52;6.65;;;;;;;17.91;45.00;95096.81;4185809;28;20123;-78
2023/09/10 06:23:57;;;;;;;14.70;6.63;;;;;;;17.86;45.31;95096.59;4192877;28;20064;-79
2023/09/10 06:25:59;;;;;;;14.32;6.60;;;;;;;17.79;45.18;95098.34;4163702;28;20084;-76
2023/09/10 06:28:01;;;;;;;12.20;6.18;;;;;;;18.01;45.17;95093.81;4175676;28;20052;-75
2023/09/10 06:30:03;;;;;;;9.85;5.35;;;;;;;18.08;44.61;95105.28;4173462;28;20053;-77
2023/09/10 06:32:05;;;;;;;10.60;5.72;;;;;;;18.31;44.38;95101.53;4192812;28;20523;-77
2023/09/10 06:34:07;;;;;;;8.32;4.70;;;;;;;18.40;43.85;95092.38;4189474;28;20481;-76
2023/09/10 06:36:09;;;;;;;7.60;4.82;;;;;;;18.47;43.47;95095.88;4180774;28;20048;-76
2023/09/10 06:38:11;;;;;;;11.30;5.28;;;;;;;18.63;43.43;95092.06;4175694;28;20370;-76
2023/09/10 06:40:15;;;;;;;11.55;4.75;;;;;;;18.84;43.38;95091.09;4185997;28;20055;-78
2023/09/10 06:42:16;;;;;;;11.15;4.82;;;;;;;19.00;42.73;95092.59;4190717;28;20098;-78
2023/09/10 06:44:18;;;;;;;9.68;4.53;;;;;;;19.17;42.35;95093.03;4186347;28;20057;-78
2023/09/10 06:46:21;;;;;;;8.77;4.38;;;;;;;19.32;41.98;95091.00;4195765;28;20068;-77
2023/09/10 06:48:23;;;;;;;11.63;4.40;;;;;;;19.47;42.02;95082.81;4187399;28;20052;-77
2023/09/10 06:50:25;;;;;;;9.65;4.13;;;;;;;19.64;41.53;95089.34;4195241;28;20057;-75
2023/09/10 06:52:26;;;;;;;11.88;4.90;;;;;;;19.77;41.13;95093.06;4178144;28;20095;-76
2023/09/10 06:54:28;;;;;;;10.88;4.57;;;;;;;19.92;40.97;95090.16;4179198;28;20053;-76
2023/09/10 06:56:30;;;;;;;10.13;4.78;;;;;;;19.78;40.81;95090.19;4179762;28;20044;-77
2023/09/10 06:58:32;;;;;;;10.10;4.22;;;;;;;19.78;41.08;95092.03;4195930;28;20044;-75
2023/09/10 07:00:34;;;;;;;15.35;5.03;;;;;;;19.84;40.90;95094.66;4176524;28;20461;-77
2023/09/10 07:02:36;;;;;;;5.53;3.42;;;;;;;20.04;40.46;95089.31;4195842;28;20070;-76
2023/09/10 07:04:47;;;;;;;8.38;4.00;;;;;;;20.02;40.56;95094.00;4194737;28;20118;-75
2023/09/10 07:06:50;;;;;;;12.75;4.10;;;;;;;19.96;40.52;95088.72;4176017;28;20065;-77
2023/09/10 07:08:52;;;;;;;6.45;4.03;;;;;;;19.78;40.72;95092.03;4176472;28;20208;-76
2023/09/10 07:10:54;;;;;;;10.25;4.03;;;;;;;19.80;40.67;95092.63;4177454;28;20048;-76
2023/09/10 07:12:56;;;;;;;7.40;3.72;;;;;;;19.90;40.74;95093.03;4198780;28;20070;-77
2023/09/10 07:14:57;;;;;;;9.15;4.03;;;;;;;20.16;40.47;95094.00;4194735;28;20041;-76
2023/09/10 07:16:59;;;;;;;8.88;4.07;;;;;;;20.38;39.99;95087.38;4192270;28;20052;-76
2023/09/10 07:19:01;;;;;;;11.68;3.92;;;;;;;20.62;39.69;95085.84;4194072;28;20151;-77
2023/09/10 07:21:03;;;;;;;6.75;3.78;;;;;;;20.79;39.50;95085.38;4184850;28;20511;-74
2023/09/10 07:23:04;;;;;;;9.02;4.30;;;;;;;20.78;39.63;95100.53;4191740;28;20114;-75
2023/09/10 07:25:07;;;;;;;10.40;3.78;;;;;;;20.82;39.67;95091.09;4188901;28;20044;-77
2023/09/10 07:27:08;;;;;;;7.00;4.00;;;;;;;20.90;39.37;95092.69;4194944;28;20049;-75
2023/09/10 07:29:15;;;;;;;6.07;3.60;;;;;;;20.46;39.70;95095.13;4194566;28;20381;-77
2023/09/10 07:31:17;;;;;;;9.45;3.95;;;;;;;20.46;39.93;95089.81;4195112;28;20056;-77
2023/09/10 07:33:19;;;;;;;13.02;6.38;;;;;;;20.65;39.86;95087.31;4191844;28;20522;-75
2023/09/10 07:35:21;;;;;;;7.22;4.40;;;;;;;20.85;39.34;95084.53;4193557;28;20224;-77
2023/09/10 07:37:23;;;;;;;10.07;4.13;;;;;;;21.14;39.23;95088.44;4197802;28;20048;-76
2023/09/10 07:39:29;;;;;;;5.63;3.92;;;;;;;21.38;38.93;95086.84;4198680;28;20102;-78
2023/09/10 07:41:32;;;;;;;9.23;3.60;;;;;;;21.52;37.57;95084.91;4192467;28;20080;-76
2023/09/10 07:43:34;;;;;;;9.07;4.05;;;;;;;21.61;37.49;95080.94;4159070;28;20042;-77
2023/09/10 07:45:35;;;;;;;8.90;4.07;;;;;;;21.56;37.75;95079.97;4176132;28;20061;-77
2023/09/10 07:47:37;;;;;;;9.45;4.38;;;;;;;21.53;37.43;95075.91;4180249;28;20138;-77
2023/09/10 07:49:39;;;;;;;8.45;4.43;;;;;;;21.55;37.41;95081.81;4195070;28;20056;-76
2023/09/10 07:51:42;;;;;;;9.57;4.00;;;;;;;21.52;37.43;95079.59;4181641;28;20045;-76
2023/09/10 07:53:44;;;;;;;5.88;3.58;;;;;;;21.71;37.39;95067.13;4193359;28;20479;-76
2023/09/10 07:55:46;;;;;;;9.07;4.35;;;;;;;21.94;37.50;95073.66;4194452;28;20128;-76
2023/09/10 07:57:49;;;;;;;8.80;4.22;;;;;;;22.19;36.84;95070.94;4172799;28;20246;-76
2023/09/10 07:59:51;;;;;;;5.63;3.65;;;;;;;22.34;36.75;95068.75;4176202;28;20090;-76
2023/09/10 08:01:53;;;;;;;8.45;4.25;;;;;;;22.53;36.54;95074.09;4199763;28;20044;-78
2023/09/10 08:03:55;;;;;;;8.25;4.63;;;;;;;22.61;35.67;95066.56;4192028;28;20507;-76
2023/09/10 08:05:58;;;;;;;10.80;3.42;;;;;;;22.58;35.24;95063.53;4177031;28;20516;-76
2023/09/10 08:08:03;;;;;;;10.82;3.88;;;;;;;22.20;35.80;95069.91;4203243;28;20067;-77
2023/09/10 08:10:05;;;;;;;6.88;3.55;;;;;;;22.09;34.97;95071.44;4194809;28;20056;-78
2023/09/10 08:12:07;;;;;;;6.70;2.90;;;;;;;22.16;34.46;95064.22;4191350;28;20437;-77
2023/09/10 08:14:09;;;;;;;7.93;2.70;;;;;;;22.24;34.27;95071.13;4170352;28;20060;-75
2023/09/10 08:16:13;;;;;;;11.52;3.25;;;;;;;22.42;34.56;95071.13;4194571;28;20060;-75
2023/09/10 08:18:16;;;;;;;6.45;3.60;;;;;;;22.52;34.27;95065.25;4192530;28;20044;-76
2023/09/10 08:20:18;;;;;;;6.20;3.40;;;;;;;22.72;34.62;95072.19;4191767;28;20048;-74
2023/09/10 08:22:20;;;;;;;9.18;3.08;;;;;;;22.64;34.52;95062.63;4195070;28;20064;-74
2023/09/10 08:24:22;;;;;;;7.05;2.88;;;;;;;22.68;35.19;95061.16;4191981;28;20295;-74
2023/09/10 08:26:24;;;;;;;8.80;3.80;;;;;;;22.65;35.21;95056.25;4179656;28;20056;-74
2023/09/10 08:28:26;;;;;;;4.35;2.97;;;;;;;22.89;34.60;95057.97;4189168;28;20120;-75
2023/09/10 08:30:28;;;;;;;8.52;3.03;;;;;;;23.13;34.32;95055.41;4193526;28;20053;-76
2023/09/10 08:32:29;;;;;;;6.22;3.40;;;;;;;23.12;34.30;95055.63;4182357;28;20052;-76
2023/09/10 08:34:31;;;;;;;9.40;3.00;;;;;;;23.05;34.70;95051.19;4179420;28;20353;-75
2023/09/10 08:36:33;;;;;;;8.07;3.13;;;;;;;23.20;34.63;95050.78;4188872;28;20140;-78
2023/09/10 08:38:35;;;;;;;8.38;3.00;;;;;;;23.38;34.75;95054.41;4178544;28;20315;-78
2023/09/10 08:40:57;;;;;;;4.88;2.90;;;;;;;23.36;34.19;95051.16;4187939;28;20064;-78
2023/09/10 08:43:10;;;;;;;9.18;3.35;;;;;;;23.53;34.03;95052.09;4176302;28;20491;-78
2023/09/10 08:45:13;;;;;;;8.75;3.15;;;;;;;23.55;34.89;95052.69;4188874;28;20051;-76
2023/09/10 08:47:17;;;;;;;9.73;3.33;;;;;;;23.72;34.92;95052.81;4187162;28;20361;-78
2023/09/10 08:49:19;;;;;;;;;;;;;;;23.81;35.04;95046.13;4176509;28;20124;-75
2023/09/10 08:51:20;;;;;;;4.97;3.10;;;;;;;23.92;34.93;95055.19;4186457;28;20352;-76
2023/09/10 08:53:23;;;;;;;5.57;3.75;;;;;;;24.09;34.80;95048.06;4176442;28;20151;-75
2023/09/10 08:55:25;;;;;;;7.72;3.40;;;;;;;24.27;34.24;95047.09;4187467;28;20048;-75
2023/09/10 08:57:29;;;;;;;5.07;3.28;;;;;;;24.36;34.05;95049.41;4170894;28;20048;-75
2023/09/10 08:59:31;;;;;;;6.30;2.93;;;;;;;24.36;33.94;95041.38;4175259;28;20053;-75
2023/09/10 09:01:34;;;;;;;7.78;3.60;;;;;;;23.95;34.29;95048.53;4172497;28;20113;-76
2023/09/10 09:03:36;;;;;;;6.10;3.08;;;;;;;24.00;34.64;95044.09;4174058;28;20056;-75
2023/09/10 09:05:39;;;;;;;8.90;3.97;;;;;;;24.16;34.82;95047.13;4188097;28;20164;-77
2023/09/10 09:07:52;;;;;;;7.45;4.10;;;;;;;24.22;34.65;95046.16;4183077;28;20083;-75
2023/09/10 09:09:57;;;;;;;7.18;3.53;;;;;;;24.25;34.20;95035.00;4191496;28;20121;-77
2023/09/10 09:11:59;;;;;;;7.93;3.67;;;;;;;23.97;34.88;95039.22;4175323;28;20041;-81
2023/09/10 09:14:07;;;;;;;5.25;3.78;;;;;;;23.84;35.28;95036.81;4183961;28;20508;-76
2023/09/10 09:16:10;;;;;;;5.00;3.45;;;;;;;24.01;34.84;95045.75;4203803;28;20121;-80
2023/09/10 09:18:14;;;;;;;6.43;3.90;;;;;;;24.36;34.47;95039.50;4178276;28;20053;-75
2023/09/10 09:20:18;;;;;;;9.93;3.85;;;;;;;24.54;34.36;95035.88;4193959;28;20052;-76
2023/09/10 09:22:20;;;;;;;7.03;3.55;;;;;;;24.73;33.94;95044.53;4173226;28;20041;-77
2023/09/10 09:24:22;;;;;;;5.53;3.90;;;;;;;24.36;34.45;95039.50;4177069;28;20415;-75
2023/09/10 09:26:25;;;;;;;4.97;3.38;;;;;;;24.31;34.53;95040.22;4183310;28;20049;-77
2023/09/10 09:28:29;;;;;;;12.07;3.53;;;;;;;24.56;34.23;95041.00;4197213;28;20049;-76
2023/09/10 09:30:31;;;;;;;6.88;3.25;;;;;;;24.82;33.98;95031.56;4196702;28;20124;-75
2023/09/10 09:32:37;;;;;;;7.13;3.63;;;;;;;24.58;34.14;95038.88;4177457;28;20080;-79
2023/09/10 09:34:39;;;;;;;9.30;3.70;;;;;;;24.70;34.13;95035.13;4194506;28;20051;-78
2023/09/10 09:36:42;;;;;;;5.05;3.78;;;;;;;24.82;33.34;95037.72;4165491;28;20492;-77